sensor_id;sensor_type;location;lat;lon;timestamp;P1;durP1;ratioP1;P2;durP2;ratioP2
803;SDS011;25687;49.976;8.240;2023-05-07T00:00:50;1.60;;;1.50;;
803;SDS011;25687;49.976;8.240;2023-05-07T00:03:16;2.07;;;1.80;;
803;SDS011;25687;49.976;8.240;2023-05-07T00:05:41;2.00;;;1.77;;
803;SDS011;25687;49.976;8.240;2023-05-07T00:08:07;3.73;;;2.03;;
803;SDS011;25687;49.976;8.240;2023-05-07T00:10:32;5.17;;;1.90;;
803;SDS011;25687;49.976;8.240;2023-05-07T00:12:58;1.70;;;1.60;;
803;SDS011;25687;49.976;8.240;2023-05-07T00:15:23;3.20;;;1.80;;
803;SDS011;25687;49.976;8.240;2023-05-07T00:17:48;3.67;;;1.90;;
803;SDS011;25687;49.976;8.240;2023-05-07T00:20:14;2.00;;;1.50;;
803;SDS011;25687;49.976;8.240;2023-05-07T00:22:39;3.83;;;1.87;;
803;SDS011;25687;49.976;8.240;2023-05-07T00:25:05;2.23;;;1.70;;
803;SDS011;25687;49.976;8.240;2023-05-07T00:27:30;2.37;;;1.47;;
803;SDS011;25687;49.976;8.240;2023-05-07T00:29:55;1.60;;;1.50;;
803;SDS011;25687;49.976;8.240;2023-05-07T00:32:21;2.00;;;1.60;;
803;SDS011;25687;49.976;8.240;2023-05-07T00:34:46;2.87;;;1.83;;
803;SDS011;25687;49.976;8.240;2023-05-07T00:37:11;2.87;;;2.00;;
803;SDS011;25687;49.976;8.240;2023-05-07T00:39:37;2.37;;;1.90;;
803;SDS011;25687;49.976;8.240;2023-05-07T00:42:02;1.83;;;1.53;;
803;SDS011;25687;49.976;8.240;2023-05-07T00:44:28;3.10;;;1.93;;
803;SDS011;25687;49.976;8.240;2023-05-07T00:46:54;2.80;;;1.97;;
803;SDS011;25687;49.976;8.240;2023-05-07T00:49:21;2.53;;;2.20;;
803;SDS011;25687;49.976;8.240;2023-05-07T00:51:47;1.70;;;1.60;;
803;SDS011;25687;49.976;8.240;2023-05-07T00:54:12;2.37;;;2.00;;
803;SDS011;25687;49.976;8.240;2023-05-07T00:56:38;1.83;;;1.70;;
803;SDS011;25687;49.976;8.240;2023-05-07T00:59:04;1.80;;;1.50;;
803;SDS011;25687;49.976;8.240;2023-05-07T01:01:31;2.00;;;1.80;;
803;SDS011;25687;49.976;8.240;2023-05-07T01:03:56;2.53;;;1.90;;
803;SDS011;25687;49.976;8.240;2023-05-07T01:06:22;2.30;;;2.00;;
803;SDS011;25687;49.976;8.240;2023-05-07T01:08:50;2.70;;;2.20;;
803;SDS011;25687;49.976;8.240;2023-05-07T01:11:17;6.40;;;3.67;;
803;SDS011;25687;49.976;8.240;2023-05-07T01:13:45;10.13;;;4.80;;
803;SDS011;25687;49.976;8.240;2023-05-07T01:16:11;7.20;;;5.47;;
803;SDS011;25687;49.976;8.240;2023-05-07T01:18:36;5.17;;;4.67;;
803;SDS011;25687;49.976;8.240;2023-05-07T01:21:02;6.23;;;4.63;;
803;SDS011;25687;49.976;8.240;2023-05-07T01:23:29;5.63;;;3.80;;
803;SDS011;25687;49.976;8.240;2023-05-07T01:25:55;3.63;;;3.33;;
803;SDS011;25687;49.976;8.240;2023-05-07T01:28:20;5.00;;;3.20;;
803;SDS011;25687;49.976;8.240;2023-05-07T01:30:53;3.13;;;2.83;;
803;SDS011;25687;49.976;8.240;2023-05-07T01:33:21;4.73;;;2.80;;
803;SDS011;25687;49.976;8.240;2023-05-07T01:35:47;3.10;;;2.80;;
803;SDS011;25687;49.976;8.240;2023-05-07T01:38:16;4.03;;;2.50;;
803;SDS011;25687;49.976;8.240;2023-05-07T01:40:43;4.33;;;2.40;;
803;SDS011;25687;49.976;8.240;2023-05-07T01:43:08;2.27;;;2.07;;
803;SDS011;25687;49.976;8.240;2023-05-07T01:45:34;6.27;;;2.37;;
803;SDS011;25687;49.976;8.240;2023-05-07T01:48:00;2.63;;;2.20;;
803;SDS011;25687;49.976;8.240;2023-05-07T01:50:26;3.67;;;2.37;;
803;SDS011;25687;49.976;8.240;2023-05-07T01:52:52;2.97;;;2.20;;
803;SDS011;25687;49.976;8.240;2023-05-07T01:55:17;4.63;;;2.30;;
803;SDS011;25687;49.976;8.240;2023-05-07T01:57:43;1.97;;;1.80;;
803;SDS011;25687;49.976;8.240;2023-05-07T02:00:08;2.30;;;2.13;;
803;SDS011;25687;49.976;8.240;2023-05-07T02:02:34;2.87;;;2.00;;
803;SDS011;25687;49.976;8.240;2023-05-07T02:05:00;3.70;;;2.50;;
803;SDS011;25687;49.976;8.240;2023-05-07T02:07:26;3.23;;;2.43;;
803;SDS011;25687;49.976;8.240;2023-05-07T02:09:52;4.67;;;2.40;;
803;SDS011;25687;49.976;8.240;2023-05-07T02:12:17;2.50;;;2.30;;
803;SDS011;25687;49.976;8.240;2023-05-07T02:14:42;5.63;;;2.60;;
803;SDS011;25687;49.976;8.240;2023-05-07T02:17:07;2.33;;;1.80;;
803;SDS011;25687;49.976;8.240;2023-05-07T02:19:33;4.33;;;2.50;;
803;SDS011;25687;49.976;8.240;2023-05-07T02:21:58;5.87;;;2.50;;
803;SDS011;25687;49.976;8.240;2023-05-07T02:24:24;5.37;;;2.80;;
803;SDS011;25687;49.976;8.240;2023-05-07T02:26:49;3.17;;;2.10;;
803;SDS011;25687;49.976;8.240;2023-05-07T02:29:14;3.10;;;2.20;;
803;SDS011;25687;49.976;8.240;2023-05-07T02:31:39;2.33;;;2.13;;
803;SDS011;25687;49.976;8.240;2023-05-07T02:34:05;2.20;;;2.00;;
803;SDS011;25687;49.976;8.240;2023-05-07T02:36:30;2.07;;;1.80;;
803;SDS011;25687;49.976;8.240;2023-05-07T02:38:55;3.63;;;1.97;;
803;SDS011;25687;49.976;8.240;2023-05-07T02:41:21;3.97;;;1.90;;
803;SDS011;25687;49.976;8.240;2023-05-07T02:43:46;2.17;;;1.97;;
803;SDS011;25687;49.976;8.240;2023-05-07T02:46:11;3.03;;;2.10;;
803;SDS011;25687;49.976;8.240;2023-05-07T02:48:37;3.33;;;2.03;;
803;SDS011;25687;49.976;8.240;2023-05-07T02:51:02;2.53;;;1.70;;
803;SDS011;25687;49.976;8.240;2023-05-07T02:53:28;1.93;;;1.83;;
803;SDS011;25687;49.976;8.240;2023-05-07T02:55:57;5.37;;;2.20;;
803;SDS011;25687;49.976;8.240;2023-05-07T02:58:23;2.77;;;2.20;;
803;SDS011;25687;49.976;8.240;2023-05-07T03:00:49;5.17;;;2.00;;
803;SDS011;25687;49.976;8.240;2023-05-07T03:03:15;3.73;;;1.93;;
803;SDS011;25687;49.976;8.240;2023-05-07T03:05:40;3.90;;;2.20;;
803;SDS011;25687;49.976;8.240;2023-05-07T03:08:06;2.23;;;2.00;;
803;SDS011;25687;49.976;8.240;2023-05-07T03:10:32;3.07;;;2.17;;
803;SDS011;25687;49.976;8.240;2023-05-07T03:12:57;3.63;;;2.00;;
803;SDS011;25687;49.976;8.240;2023-05-07T03:15:22;3.27;;;2.37;;
803;SDS011;25687;49.976;8.240;2023-05-07T03:17:48;3.37;;;2.30;;
803;SDS011;25687;49.976;8.240;2023-05-07T03:20:13;2.93;;;2.10;;
803;SDS011;25687;49.976;8.240;2023-05-07T03:22:39;4.13;;;2.10;;
803;SDS011;25687;49.976;8.240;2023-05-07T03:25:04;3.00;;;2.17;;
803;SDS011;25687;49.976;8.240;2023-05-07T03:27:30;2.30;;;2.10;;
803;SDS011;25687;49.976;8.240;2023-05-07T03:29:55;3.10;;;2.20;;
803;SDS011;25687;49.976;8.240;2023-05-07T03:32:21;3.60;;;2.40;;
803;SDS011;25687;49.976;8.240;2023-05-07T03:34:46;3.73;;;2.53;;
803;SDS011;25687;49.976;8.240;2023-05-07T03:37:11;2.70;;;2.40;;
803;SDS011;25687;49.976;8.240;2023-05-07T03:39:36;2.97;;;2.10;;
803;SDS011;25687;49.976;8.240;2023-05-07T03:42:02;3.70;;;2.33;;
803;SDS011;25687;49.976;8.240;2023-05-07T03:44:27;2.80;;;2.43;;
803;SDS011;25687;49.976;8.240;2023-05-07T03:46:53;2.73;;;2.20;;
803;SDS011;25687;49.976;8.240;2023-05-07T03:49:18;4.37;;;2.40;;
803;SDS011;25687;49.976;8.240;2023-05-07T03:51:43;4.17;;;2.37;;
803;SDS011;25687;49.976;8.240;2023-05-07T03:54:08;3.67;;;2.50;;
803;SDS011;25687;49.976;8.240;2023-05-07T03:56:34;3.10;;;2.60;;
803;SDS011;25687;49.976;8.240;2023-05-07T03:59:00;4.40;;;2.23;;
803;SDS011;25687;49.976;8.240;2023-05-07T04:01:26;2.63;;;2.20;;
803;SDS011;25687;49.976;8.240;2023-05-07T04:03:51;2.67;;;2.20;;
803;SDS011;25687;49.976;8.240;2023-05-07T04:06:16;2.50;;;1.83;;
803;SDS011;25687;49.976;8.240;2023-05-07T04:08:45;2.00;;;1.80;;
803;SDS011;25687;49.976;8.240;2023-05-07T04:11:10;2.30;;;2.10;;
803;SDS011;25687;49.976;8.240;2023-05-07T04:13:36;2.17;;;1.97;;
803;SDS011;25687;49.976;8.240;2023-05-07T04:16:02;3.07;;;2.00;;
803;SDS011;25687;49.976;8.240;2023-05-07T04:18:28;2.30;;;2.10;;
803;SDS011;25687;49.976;8.240;2023-05-07T04:20:53;3.53;;;2.37;;
803;SDS011;25687;49.976;8.240;2023-05-07T04:23:19;2.30;;;2.00;;
803;SDS011;25687;49.976;8.240;2023-05-07T04:25:44;2.27;;;2.07;;
803;SDS011;25687;49.976;8.240;2023-05-07T04:28:10;2.37;;;2.17;;
803;SDS011;25687;49.976;8.240;2023-05-07T04:30:36;4.30;;;2.47;;
803;SDS011;25687;49.976;8.240;2023-05-07T04:33:01;1.93;;;1.70;;
803;SDS011;25687;49.976;8.240;2023-05-07T04:35:26;2.63;;;2.00;;
803;SDS011;25687;49.976;8.240;2023-05-07T04:37:52;3.27;;;2.10;;
803;SDS011;25687;49.976;8.240;2023-05-07T04:40:17;2.70;;;1.70;;
803;SDS011;25687;49.976;8.240;2023-05-07T04:42:42;4.03;;;2.37;;
803;SDS011;25687;49.976;8.240;2023-05-07T04:45:08;2.73;;;1.97;;
803;SDS011;25687;49.976;8.240;2023-05-07T04:47:35;3.47;;;2.23;;
803;SDS011;25687;49.976;8.240;2023-05-07T04:50:00;5.40;;;2.23;;
803;SDS011;25687;49.976;8.240;2023-05-07T04:52:25;2.33;;;1.80;;
803;SDS011;25687;49.976;8.240;2023-05-07T04:54:51;2.70;;;2.07;;
803;SDS011;25687;49.976;8.240;2023-05-07T04:57:16;1.90;;;1.80;;
803;SDS011;25687;49.976;8.240;2023-05-07T04:59:42;2.13;;;1.80;;
803;SDS011;25687;49.976;8.240;2023-05-07T05:02:09;5.47;;;2.17;;
803;SDS011;25687;49.976;8.240;2023-05-07T05:04:35;3.63;;;2.30;;
803;SDS011;25687;49.976;8.240;2023-05-07T05:07:00;2.43;;;2.20;;
803;SDS011;25687;49.976;8.240;2023-05-07T05:09:25;2.20;;;2.00;;
803;SDS011;25687;49.976;8.240;2023-05-07T05:11:51;4.77;;;1.80;;
803;SDS011;25687;49.976;8.240;2023-05-07T05:14:16;2.97;;;2.07;;
803;SDS011;25687;49.976;8.240;2023-05-07T05:16:41;3.27;;;2.00;;
803;SDS011;25687;49.976;8.240;2023-05-07T05:19:06;2.47;;;1.70;;
803;SDS011;25687;49.976;8.240;2023-05-07T05:21:32;3.00;;;2.27;;
803;SDS011;25687;49.976;8.240;2023-05-07T05:23:58;1.90;;;1.70;;
803;SDS011;25687;49.976;8.240;2023-05-07T05:26:23;3.47;;;2.00;;
803;SDS011;25687;49.976;8.240;2023-05-07T05:28:48;2.87;;;2.00;;
803;SDS011;25687;49.976;8.240;2023-05-07T05:31:13;2.90;;;2.53;;
803;SDS011;25687;49.976;8.240;2023-05-07T05:33:39;2.43;;;2.10;;
803;SDS011;25687;49.976;8.240;2023-05-07T05:36:05;2.30;;;1.70;;
803;SDS011;25687;49.976;8.240;2023-05-07T05:38:30;2.13;;;1.93;;
803;SDS011;25687;49.976;8.240;2023-05-07T05:40:56;2.73;;;2.10;;
803;SDS011;25687;49.976;8.240;2023-05-07T05:43:21;2.63;;;1.90;;
803;SDS011;25687;49.976;8.240;2023-05-07T05:45:46;3.50;;;1.90;;
803;SDS011;25687;49.976;8.240;2023-05-07T05:48:11;1.87;;;1.73;;
803;SDS011;25687;49.976;8.240;2023-05-07T05:50:37;2.53;;;1.90;;
803;SDS011;25687;49.976;8.240;2023-05-07T05:53:02;1.80;;;1.70;;
803;SDS011;25687;49.976;8.240;2023-05-07T05:55:28;4.47;;;1.83;;
803;SDS011;25687;49.976;8.240;2023-05-07T05:57:53;2.30;;;1.70;;
803;SDS011;25687;49.976;8.240;2023-05-07T06:00:18;3.03;;;1.80;;
803;SDS011;25687;49.976;8.240;2023-05-07T06:02:47;2.43;;;1.80;;
803;SDS011;25687;49.976;8.240;2023-05-07T06:05:12;2.20;;;1.73;;
803;SDS011;25687;49.976;8.240;2023-05-07T06:07:37;2.37;;;1.70;;
803;SDS011;25687;49.976;8.240;2023-05-07T06:10:03;3.37;;;1.97;;
803;SDS011;25687;49.976;8.240;2023-05-07T06:12:28;2.00;;;1.80;;
803;SDS011;25687;49.976;8.240;2023-05-07T06:14:53;2.23;;;1.77;;
803;SDS011;25687;49.976;8.240;2023-05-07T06:17:19;3.23;;;1.90;;
803;SDS011;25687;49.976;8.240;2023-05-07T06:19:45;1.80;;;1.63;;
803;SDS011;25687;49.976;8.240;2023-05-07T06:22:10;2.40;;;2.00;;
803;SDS011;25687;49.976;8.240;2023-05-07T06:24:35;4.83;;;2.63;;
803;SDS011;25687;49.976;8.240;2023-05-07T06:27:00;2.20;;;2.00;;
803;SDS011;25687;49.976;8.240;2023-05-07T06:29:26;2.83;;;1.93;;
803;SDS011;25687;49.976;8.240;2023-05-07T06:31:54;2.83;;;1.90;;
803;SDS011;25687;49.976;8.240;2023-05-07T06:34:19;3.90;;;2.17;;
803;SDS011;25687;49.976;8.240;2023-05-07T06:36:44;2.37;;;2.03;;
803;SDS011;25687;49.976;8.240;2023-05-07T06:39:09;4.13;;;2.27;;
803;SDS011;25687;49.976;8.240;2023-05-07T06:41:35;2.17;;;2.00;;
803;SDS011;25687;49.976;8.240;2023-05-07T06:44:01;2.47;;;1.93;;
803;SDS011;25687;49.976;8.240;2023-05-07T06:46:27;3.73;;;2.00;;
803;SDS011;25687;49.976;8.240;2023-05-07T06:48:53;2.93;;;2.40;;
803;SDS011;25687;49.976;8.240;2023-05-07T06:51:18;2.10;;;1.90;;
803;SDS011;25687;49.976;8.240;2023-05-07T06:53:43;4.70;;;2.10;;
803;SDS011;25687;49.976;8.240;2023-05-07T06:56:08;1.73;;;1.63;;
803;SDS011;25687;49.976;8.240;2023-05-07T06:58:34;2.33;;;2.10;;
803;SDS011;25687;49.976;8.240;2023-05-07T07:00:59;2.33;;;2.03;;
803;SDS011;25687;49.976;8.240;2023-05-07T07:03:24;2.67;;;2.37;;
803;SDS011;25687;49.976;8.240;2023-05-07T07:05:53;2.43;;;2.17;;
803;SDS011;25687;49.976;8.240;2023-05-07T07:08:19;5.40;;;2.43;;
803;SDS011;25687;49.976;8.240;2023-05-07T07:10:46;2.80;;;2.53;;
803;SDS011;25687;49.976;8.240;2023-05-07T07:13:11;3.57;;;2.10;;
803;SDS011;25687;49.976;8.240;2023-05-07T07:15:37;4.70;;;2.27;;
803;SDS011;25687;49.976;8.240;2023-05-07T07:18:02;2.93;;;2.73;;
803;SDS011;25687;49.976;8.240;2023-05-07T07:20:27;4.97;;;2.63;;
803;SDS011;25687;49.976;8.240;2023-05-07T07:22:53;4.57;;;2.30;;
803;SDS011;25687;49.976;8.240;2023-05-07T07:25:18;3.03;;;2.30;;
803;SDS011;25687;49.976;8.240;2023-05-07T07:27:43;2.90;;;2.70;;
803;SDS011;25687;49.976;8.240;2023-05-07T07:30:09;3.27;;;2.47;;
803;SDS011;25687;49.976;8.240;2023-05-07T07:32:34;4.47;;;2.80;;
803;SDS011;25687;49.976;8.240;2023-05-07T07:35:00;2.90;;;2.70;;
803;SDS011;25687;49.976;8.240;2023-05-07T07:37:25;3.73;;;2.23;;
803;SDS011;25687;49.976;8.240;2023-05-07T07:39:50;2.53;;;2.33;;
803;SDS011;25687;49.976;8.240;2023-05-07T07:42:16;2.50;;;2.30;;
803;SDS011;25687;49.976;8.240;2023-05-07T07:44:41;3.30;;;2.47;;
803;SDS011;25687;49.976;8.240;2023-05-07T07:47:06;3.40;;;2.50;;
803;SDS011;25687;49.976;8.240;2023-05-07T07:49:31;6.13;;;3.10;;
803;SDS011;25687;49.976;8.240;2023-05-07T07:51:57;3.73;;;2.80;;
803;SDS011;25687;49.976;8.240;2023-05-07T07:54:24;3.20;;;2.70;;
803;SDS011;25687;49.976;8.240;2023-05-07T07:56:49;3.17;;;2.77;;
803;SDS011;25687;49.976;8.240;2023-05-07T07:59:15;2.80;;;2.60;;
803;SDS011;25687;49.976;8.240;2023-05-07T08:01:43;3.30;;;2.60;;
803;SDS011;25687;49.976;8.240;2023-05-07T08:04:09;3.90;;;2.83;;
803;SDS011;25687;49.976;8.240;2023-05-07T08:06:34;6.17;;;2.73;;
803;SDS011;25687;49.976;8.240;2023-05-07T08:08:59;3.97;;;2.47;;
803;SDS011;25687;49.976;8.240;2023-05-07T08:11:25;2.80;;;2.47;;
803;SDS011;25687;49.976;8.240;2023-05-07T08:13:50;2.93;;;2.50;;
803;SDS011;25687;49.976;8.240;2023-05-07T08:16:16;2.50;;;2.27;;
803;SDS011;25687;49.976;8.240;2023-05-07T08:18:41;5.53;;;2.87;;
803;SDS011;25687;49.976;8.240;2023-05-07T08:21:06;5.73;;;2.60;;
803;SDS011;25687;49.976;8.240;2023-05-07T08:23:32;2.60;;;2.40;;
803;SDS011;25687;49.976;8.240;2023-05-07T08:25:59;4.27;;;2.93;;
803;SDS011;25687;49.976;8.240;2023-05-07T08:28:24;4.30;;;2.30;;
803;SDS011;25687;49.976;8.240;2023-05-07T08:30:49;4.70;;;2.60;;
803;SDS011;25687;49.976;8.240;2023-05-07T08:33:15;3.20;;;2.60;;
803;SDS011;25687;49.976;8.240;2023-05-07T08:35:40;2.93;;;2.70;;
803;SDS011;25687;49.976;8.240;2023-05-07T08:38:05;2.60;;;2.40;;
803;SDS011;25687;49.976;8.240;2023-05-07T08:40:32;3.00;;;2.70;;
803;SDS011;25687;49.976;8.240;2023-05-07T08:43:02;3.87;;;2.70;;
803;SDS011;25687;49.976;8.240;2023-05-07T08:45:30;4.27;;;2.43;;
803;SDS011;25687;49.976;8.240;2023-05-07T08:48:18;3.67;;;2.87;;
803;SDS011;25687;49.976;8.240;2023-05-07T08:50:46;3.67;;;2.33;;
803;SDS011;25687;49.976;8.240;2023-05-07T08:53:11;3.10;;;2.10;;
803;SDS011;25687;49.976;8.240;2023-05-07T08:55:37;4.13;;;2.63;;
803;SDS011;25687;49.976;8.240;2023-05-07T08:58:03;3.03;;;2.77;;
803;SDS011;25687;49.976;8.240;2023-05-07T09:00:28;5.73;;;3.03;;
803;SDS011;25687;49.976;8.240;2023-05-07T09:02:54;3.27;;;2.30;;
803;SDS011;25687;49.976;8.240;2023-05-07T09:05:19;3.47;;;2.33;;
803;SDS011;25687;49.976;8.240;2023-05-07T09:07:45;2.73;;;2.53;;
803;SDS011;25687;49.976;8.240;2023-05-07T09:10:11;3.90;;;2.33;;
803;SDS011;25687;49.976;8.240;2023-05-07T09:12:37;3.90;;;2.60;;
803;SDS011;25687;49.976;8.240;2023-05-07T09:15:03;2.50;;;2.30;;
803;SDS011;25687;49.976;8.240;2023-05-07T09:17:28;4.43;;;2.47;;
803;SDS011;25687;49.976;8.240;2023-05-07T09:19:54;2.67;;;2.47;;
803;SDS011;25687;49.976;8.240;2023-05-07T09:22:19;2.70;;;2.50;;
803;SDS011;25687;49.976;8.240;2023-05-07T09:24:48;2.73;;;2.53;;
803;SDS011;25687;49.976;8.240;2023-05-07T09:27:14;2.77;;;2.43;;
803;SDS011;25687;49.976;8.240;2023-05-07T09:29:40;2.60;;;2.40;;
803;SDS011;25687;49.976;8.240;2023-05-07T09:32:06;2.63;;;2.40;;
803;SDS011;25687;49.976;8.240;2023-05-07T09:34:33;3.90;;;2.60;;
803;SDS011;25687;49.976;8.240;2023-05-07T09:36:59;2.60;;;2.40;;
803;SDS011;25687;49.976;8.240;2023-05-07T09:39:38;3.73;;;2.60;;
803;SDS011;25687;49.976;8.240;2023-05-07T09:42:04;3.27;;;2.60;;
803;SDS011;25687;49.976;8.240;2023-05-07T09:44:31;2.77;;;2.50;;
803;SDS011;25687;49.976;8.240;2023-05-07T09:46:57;6.07;;;5.47;;
803;SDS011;25687;49.976;8.240;2023-05-07T09:49:25;3.97;;;2.67;;
803;SDS011;25687;49.976;8.240;2023-05-07T09:51:54;2.77;;;2.57;;
803;SDS011;25687;49.976;8.240;2023-05-07T09:54:21;3.17;;;2.87;;
803;SDS011;25687;49.976;8.240;2023-05-07T09:56:51;4.43;;;3.13;;
803;SDS011;25687;49.976;8.240;2023-05-07T09:59:17;3.00;;;2.60;;
803;SDS011;25687;49.976;8.240;2023-05-07T10:01:45;2.80;;;2.60;;
803;SDS011;25687;49.976;8.240;2023-05-07T10:04:10;3.63;;;2.73;;
803;SDS011;25687;49.976;8.240;2023-05-07T10:06:36;3.30;;;2.10;;
803;SDS011;25687;49.976;8.240;2023-05-07T10:09:02;2.53;;;2.35;;
803;SDS011;25687;49.976;8.240;2023-05-07T10:11:30;3.63;;;2.88;;
803;SDS011;25687;49.976;8.240;2023-05-07T10:13:57;2.90;;;2.70;;
803;SDS011;25687;49.976;8.240;2023-05-07T10:16:23;2.85;;;2.55;;
803;SDS011;25687;49.976;8.240;2023-05-07T10:18:50;2.90;;;2.58;;
803;SDS011;25687;49.976;8.240;2023-05-07T10:21:20;2.67;;;2.47;;
803;SDS011;25687;49.976;8.240;2023-05-07T10:23:52;2.90;;;2.33;;
803;SDS011;25687;49.976;8.240;2023-05-07T10:26:22;3.38;;;2.40;;
803;SDS011;25687;49.976;8.240;2023-05-07T10:28:50;4.28;;;2.50;;
803;SDS011;25687;49.976;8.240;2023-05-07T10:31:37;3.22;;;2.58;;
803;SDS011;25687;49.976;8.240;2023-05-07T10:34:17;2.47;;;2.28;;
803;SDS011;25687;49.976;8.240;2023-05-07T10:36:47;2.92;;;2.40;;
803;SDS011;25687;49.976;8.240;2023-05-07T10:39:14;2.80;;;2.60;;
803;SDS011;25687;49.976;8.240;2023-05-07T10:41:40;2.40;;;2.20;;
803;SDS011;25687;49.976;8.240;2023-05-07T10:44:05;5.93;;;1.88;;
803;SDS011;25687;49.976;8.240;2023-05-07T10:46:30;3.05;;;2.08;;
803;SDS011;25687;49.976;8.240;2023-05-07T10:51:25;2.50;;;2.30;;
803;SDS011;25687;49.976;8.240;2023-05-07T10:56:35;3.83;;;2.70;;
803;SDS011;25687;49.976;8.240;2023-05-07T11:01:55;3.97;;;2.30;;
803;SDS011;25687;49.976;8.240;2023-05-07T11:04:31;2.60;;;2.40;;
803;SDS011;25687;49.976;8.240;2023-05-07T11:13:03;3.10;;;2.40;;
803;SDS011;25687;49.976;8.240;2023-05-07T11:15:06;2.47;;;2.27;;
803;SDS011;25687;49.976;8.240;2023-05-07T11:17:33;3.47;;;2.43;;
803;SDS011;25687;49.976;8.240;2023-05-07T11:20:00;3.63;;;2.25;;
803;SDS011;25687;49.976;8.240;2023-05-07T11:24:55;3.63;;;2.10;;
803;SDS011;25687;49.976;8.240;2023-05-07T11:27:23;2.70;;;2.50;;
803;SDS011;25687;49.976;8.240;2023-05-07T11:29:49;2.67;;;2.40;;
803;SDS011;25687;49.976;8.240;2023-05-07T11:32:15;2.90;;;1.83;;
803;SDS011;25687;49.976;8.240;2023-05-07T11:34:47;3.35;;;1.95;;
803;SDS011;25687;49.976;8.240;2023-05-07T11:37:19;4.55;;;2.17;;
803;SDS011;25687;49.976;8.240;2023-05-07T11:39:45;2.50;;;2.05;;
803;SDS011;25687;49.976;8.240;2023-05-07T11:42:29;2.85;;;2.30;;
803;SDS011;25687;49.976;8.240;2023-05-07T11:44:55;4.15;;;2.47;;
803;SDS011;25687;49.976;8.240;2023-05-07T11:47:21;4.40;;;2.20;;
803;SDS011;25687;49.976;8.240;2023-05-07T11:49:53;2.90;;;2.25;;
803;SDS011;25687;49.976;8.240;2023-05-07T11:52:20;7.15;;;2.25;;
803;SDS011;25687;49.976;8.240;2023-05-07T11:57:15;3.40;;;2.33;;
803;SDS011;25687;49.976;8.240;2023-05-07T11:59:41;2.28;;;2.08;;
803;SDS011;25687;49.976;8.240;2023-05-07T12:02:06;2.58;;;2.35;;
803;SDS011;25687;49.976;8.240;2023-05-07T12:04:32;2.92;;;2.10;;
803;SDS011;25687;49.976;8.240;2023-05-07T12:06:58;2.42;;;2.22;;
803;SDS011;25687;49.976;8.240;2023-05-07T12:09:23;7.70;;;1.95;;
803;SDS011;25687;49.976;8.240;2023-05-07T12:11:48;2.93;;;1.97;;
803;SDS011;25687;49.976;8.240;2023-05-07T12:14:15;2.97;;;1.83;;
803;SDS011;25687;49.976;8.240;2023-05-07T12:16:43;4.00;;;2.05;;
803;SDS011;25687;49.976;8.240;2023-05-07T12:19:09;1.83;;;1.70;;
803;SDS011;25687;49.976;8.240;2023-05-07T12:21:37;3.63;;;1.83;;
803;SDS011;25687;49.976;8.240;2023-05-07T12:24:03;2.58;;;1.92;;
803;SDS011;25687;49.976;8.240;2023-05-07T12:26:28;2.63;;;2.28;;
803;SDS011;25687;49.976;8.240;2023-05-07T12:28:54;2.00;;;1.87;;
803;SDS011;25687;49.976;8.240;2023-05-07T12:31:19;5.33;;;1.90;;
803;SDS011;25687;49.976;8.240;2023-05-07T12:33:45;2.10;;;1.80;;
803;SDS011;25687;49.976;8.240;2023-05-07T12:36:12;2.10;;;1.90;;
803;SDS011;25687;49.976;8.240;2023-05-07T12:38:38;2.30;;;1.77;;
803;SDS011;25687;49.976;8.240;2023-05-07T12:41:05;2.03;;;1.80;;
803;SDS011;25687;49.976;8.240;2023-05-07T12:43:32;2.17;;;1.80;;
803;SDS011;25687;49.976;8.240;2023-05-07T12:45:59;2.05;;;1.85;;
803;SDS011;25687;49.976;8.240;2023-05-07T12:48:26;1.73;;;1.63;;
803;SDS011;25687;49.976;8.240;2023-05-07T12:50:52;2.13;;;1.60;;
803;SDS011;25687;49.976;8.240;2023-05-07T12:53:20;1.75;;;1.45;;
803;SDS011;25687;49.976;8.240;2023-05-07T12:55:47;1.45;;;1.35;;
803;SDS011;25687;49.976;8.240;2023-05-07T12:58:15;1.20;;;1.10;;
803;SDS011;25687;49.976;8.240;2023-05-07T13:00:51;1.90;;;1.45;;
803;SDS011;25687;49.976;8.240;2023-05-07T13:03:50;4.40;;;1.60;;
803;SDS011;25687;49.976;8.240;2023-05-07T13:06:12;3.35;;;1.52;;
803;SDS011;25687;49.976;8.240;2023-05-07T13:08:41;1.52;;;1.13;;
803;SDS011;25687;49.976;8.240;2023-05-07T13:11:10;1.50;;;1.40;;
803;SDS011;25687;49.976;8.240;2023-05-07T13:13:37;2.13;;;1.30;;
803;SDS011;25687;49.976;8.240;2023-05-07T13:16:05;2.25;;;1.73;;
803;SDS011;25687;49.976;8.240;2023-05-07T13:18:31;1.33;;;1.23;;
803;SDS011;25687;49.976;8.240;2023-05-07T13:20:57;2.25;;;1.70;;
803;SDS011;25687;49.976;8.240;2023-05-07T13:23:23;1.92;;;1.30;;
803;SDS011;25687;49.976;8.240;2023-05-07T13:25:48;1.88;;;1.38;;
803;SDS011;25687;49.976;8.240;2023-05-07T13:28:14;1.45;;;1.35;;
803;SDS011;25687;49.976;8.240;2023-05-07T13:30:39;1.65;;;1.30;;
803;SDS011;25687;49.976;8.240;2023-05-07T13:33:05;4.00;;;1.63;;
803;SDS011;25687;49.976;8.240;2023-05-07T13:35:31;5.85;;;1.60;;
803;SDS011;25687;49.976;8.240;2023-05-07T13:37:56;2.72;;;1.50;;
803;SDS011;25687;49.976;8.240;2023-05-07T13:40:22;1.35;;;1.25;;
803;SDS011;25687;49.976;8.240;2023-05-07T13:42:47;2.83;;;1.50;;
803;SDS011;25687;49.976;8.240;2023-05-07T13:45:13;1.45;;;1.35;;
803;SDS011;25687;49.976;8.240;2023-05-07T13:47:39;4.50;;;1.70;;
803;SDS011;25687;49.976;8.240;2023-05-07T13:50:06;2.95;;;1.25;;
803;SDS011;25687;49.976;8.240;2023-05-07T13:52:32;2.13;;;1.30;;
803;SDS011;25687;49.976;8.240;2023-05-07T13:54:57;5.22;;;1.70;;
803;SDS011;25687;49.976;8.240;2023-05-07T13:57:23;2.13;;;1.48;;
803;SDS011;25687;49.976;8.240;2023-05-07T13:59:48;4.88;;;1.65;;
803;SDS011;25687;49.976;8.240;2023-05-07T14:02:14;2.28;;;1.42;;
803;SDS011;25687;49.976;8.240;2023-05-07T14:04:40;1.30;;;1.10;;
803;SDS011;25687;49.976;8.240;2023-05-07T14:07:05;2.50;;;1.58;;
803;SDS011;25687;49.976;8.240;2023-05-07T14:09:30;2.28;;;1.25;;
803;SDS011;25687;49.976;8.240;2023-05-07T14:11:55;2.58;;;1.50;;
803;SDS011;25687;49.976;8.240;2023-05-07T14:14:21;2.08;;;1.20;;
803;SDS011;25687;49.976;8.240;2023-05-07T14:16:46;1.30;;;1.20;;
803;SDS011;25687;49.976;8.240;2023-05-07T14:19:11;1.58;;;1.20;;
803;SDS011;25687;49.976;8.240;2023-05-07T14:21:37;1.10;;;1.00;;
803;SDS011;25687;49.976;8.240;2023-05-07T14:24:02;2.33;;;1.17;;
803;SDS011;25687;49.976;8.240;2023-05-07T14:26:27;1.80;;;1.58;;
803;SDS011;25687;49.976;8.240;2023-05-07T14:28:53;1.38;;;1.17;;
803;SDS011;25687;49.976;8.240;2023-05-07T14:31:20;2.70;;;0.95;;
803;SDS011;25687;49.976;8.240;2023-05-07T14:33:45;1.30;;;1.20;;
803;SDS011;25687;49.976;8.240;2023-05-07T14:36:10;4.22;;;1.33;;
803;SDS011;25687;49.976;8.240;2023-05-07T14:38:36;2.20;;;1.27;;
803;SDS011;25687;49.976;8.240;2023-05-07T14:41:01;2.58;;;1.65;;
803;SDS011;25687;49.976;8.240;2023-05-07T14:43:26;4.50;;;1.75;;
803;SDS011;25687;49.976;8.240;2023-05-07T14:45:51;1.60;;;1.40;;
803;SDS011;25687;49.976;8.240;2023-05-07T14:48:17;1.40;;;1.02;;
803;SDS011;25687;49.976;8.240;2023-05-07T14:50:42;1.77;;;1.27;;
803;SDS011;25687;49.976;8.240;2023-05-07T14:53:07;1.45;;;1.05;;
803;SDS011;25687;49.976;8.240;2023-05-07T14:55:33;2.10;;;1.42;;
803;SDS011;25687;49.976;8.240;2023-05-07T14:57:59;5.07;;;1.63;;
803;SDS011;25687;49.976;8.240;2023-05-07T15:00:25;1.50;;;1.40;;
803;SDS011;25687;49.976;8.240;2023-05-07T15:02:50;2.63;;;1.50;;
803;SDS011;25687;49.976;8.240;2023-05-07T15:05:16;2.45;;;1.60;;
803;SDS011;25687;49.976;8.240;2023-05-07T15:07:43;1.98;;;1.63;;
803;SDS011;25687;49.976;8.240;2023-05-07T15:10:08;2.65;;;1.80;;
803;SDS011;25687;49.976;8.240;2023-05-07T15:12:34;3.83;;;1.52;;
803;SDS011;25687;49.976;8.240;2023-05-07T15:14:59;3.42;;;1.88;;
803;SDS011;25687;49.976;8.240;2023-05-07T15:17:25;3.38;;;2.00;;
803;SDS011;25687;49.976;8.240;2023-05-07T15:19:50;2.30;;;2.10;;
803;SDS011;25687;49.976;8.240;2023-05-07T15:22:15;3.13;;;2.57;;
803;SDS011;25687;49.976;8.240;2023-05-07T15:24:40;2.30;;;2.10;;
803;SDS011;25687;49.976;8.240;2023-05-07T15:27:06;2.47;;;2.27;;